Time;durP1;ratioP1;P1;durP2;ratioP2;P2;SDS_P1;SDS_P2;PMS_P1;PMS_P2;Temp;Humidity;BMP_temperature;BMP_pressure;BME280_temperature;BME280_humidity;BME280_pressure;Samples;Min_cycle;Max_cycle;Signal;HPM_P1;HPM_P2
2021/12/12 00:01:08;;;;;;;4.70;2.83;;;;;;;5.19;100.00;96136.59;4921449;29;20043;-87
2021/12/12 00:03:39;;;;;;;2.83;2.63;;;;;;;4.94;100.00;96126.69;4923614;29;20043;-86
2021/12/12 00:06:12;;;;;;;2.10;1.92;;;;;;;5.06;100.00;96143.59;4902068;29;20028;-86
2021/12/12 00:08:38;;;;;;;;;;;;;;;5.05;100.00;96147.19;4892550;29;20496;-86
2021/12/12 00:11:08;;;;;;;1.92;1.75;;;;;;;4.89;100.00;96113.69;4925939;29;20010;-86
2021/12/12 00:13:45;;;;;;;6.25;3.78;;;;;;;4.70;100.00;96113.16;4895407;29;20175;-87
2021/12/12 00:16:10;;;;;;;3.88;1.70;;;;;;;4.89;100.00;96140.19;4922059;29;20078;-86
2021/12/12 00:18:37;;;;;;;3.33;1.98;;;;;;;4.90;100.00;96130.47;4912757;29;20502;-86
2021/12/12 00:21:05;;;;;;;4.25;3.35;;;;;;;4.92;100.00;96150.59;4902861;29;20123;-86
2021/12/12 00:23:31;;;;;;;4.57;3.88;;;;;;;4.90;100.00;96149.84;4903815;29;20096;-87
2021/12/12 00:25:58;;;;;;;3.33;3.03;;;;;;;4.85;100.00;96125.47;4905387;29;20131;-88
2021/12/12 00:28:25;;;;;;;3.15;2.85;;;;;;;4.99;100.00;96139.63;4893894;29;20036;-87
2021/12/12 00:30:56;;;;;;;3.05;2.72;;;;;;;4.95;100.00;96123.09;4899366;29;20488;-87
2021/12/12 00:33:23;;;;;;;5.80;2.92;;;;;;;4.97;100.00;96144.19;4902963;29;20086;-86
2021/12/12 00:35:49;;;;;;;3.67;2.72;;;;;;;5.04;100.00;96154.31;4917385;29;20038;-86
2021/12/12 00:38:21;;;;;;;2.30;2.05;;;;;;;4.94;100.00;96150.53;4914307;29;20096;-86
2021/12/12 00:40:50;;;;;;;10.63;4.80;;;;;;;4.98;100.00;96143.22;4901302;29;20127;-86
2021/12/12 00:43:22;;;;;;;22.10;6.13;;;;;;;4.95;100.00;96156.66;4904778;29;20027;-86
2021/12/12 00:45:47;;;;;;;;;;;;;;;4.92;100.00;96157.72;4920569;29;20027;-88
2021/12/12 00:48:13;;;;;;;2.28;2.08;;;;;;;4.85;100.00;96164.34;4920054;29;19925;-87
2021/12/12 00:50:42;;;;;;;5.22;3.13;;;;;;;4.84;100.00;96152.03;4904422;29;20035;-86
2021/12/12 00:53:09;;;;;;;10.18;2.55;;;;;;;4.84;100.00;96129.03;4917765;29;20036;-86
2021/12/12 00:55:37;;;;;;;9.13;3.30;;;;;;;4.82;100.00;96095.66;4920287;29;20046;-86
2021/12/12 00:58:10;;;;;;;3.78;2.72;;;;;;;4.86;100.00;96079.47;4918571;29;20047;-87
2021/12/12 01:00:41;;;;;;;6.55;1.73;;;;;;;4.78;100.00;96092.34;4921218;29;20075;-87
2021/12/12 01:03:09;;;;;;;3.15;2.60;;;;;;;4.80;100.00;96122.22;4906341;29;20078;-87
2021/12/12 01:05:36;;;;;;;0.60;0.60;;;;;;;4.85;100.00;96135.19;4902107;29;20035;-88
2021/12/12 01:08:03;;;;;;;4.30;1.65;;;;;;;4.83;100.00;96140.56;4902085;29;20031;-87
2021/12/12 01:10:39;;;;;;;2.38;2.17;;;;;;;4.82;100.00;96107.13;4902233;29;20032;-86
2021/12/12 01:13:06;;;;;;;4.22;2.65;;;;;;;4.68;100.00;96128.28;4888833;29;20070;-87
2021/12/12 01:15:36;;;;;;;2.40;2.22;;;;;;;4.91;100.00;96154.22;4903834;29;20088;-86
2021/12/12 01:18:22;;;;;;;;;;;;;;;;;;;;;
2021/12/12 01:21:18;;;;;;;1.83;1.70;;;;;;;4.98;100.00;96161.78;4977338;28;20172;-87
2021/12/12 01:23:52;;;;;;;1.10;0.95;;;;;;;4.93;100.00;96170.84;4939650;29;20035;-86
2021/12/12 01:26:18;;;;;;;7.88;3.35;;;;;;;4.88;100.00;96175.59;4922053;29;20095;-87
2021/12/12 01:28:46;;;;;;;3.30;2.63;;;;;;;4.95;100.00;96184.03;4940916;29;20028;-87
2021/12/12 01:31:16;;;;;;;2.97;2.42;;;;;;;4.98;100.00;96177.69;4924086;29;20028;-88
2021/12/12 01:33:42;;;;;;;10.82;2.28;;;;;;;5.08;100.00;96176.13;4936616;29;20435;-87
2021/12/12 01:36:23;;;;;;;2.50;2.30;;;;;;;5.10;100.00;96174.25;4920575;29;20114;-88
2021/12/12 01:38:55;;;;;;;2.28;2.08;;;;;;;5.06;100.00;96167.44;4933437;29;20028;-87
2021/12/12 01:41:34;;;;;;;3.20;2.13;;;;;;;5.00;100.00;96173.97;4937221;29;20109;-87
2021/12/12 01:44:09;;;;;;;2.63;2.33;;;;;;;4.90;100.00;96152.50;4955475;29;20050;-87
2021/12/12 01:46:41;;;;;;;12.35;6.05;;;;;;;4.81;100.00;96170.75;4955161;29;20086;-87
2021/12/12 01:49:17;;;;;;;4.50;2.97;;;;;;;4.79;100.00;96176.16;4927521;29;20110;-87
2021/12/12 01:51:43;;;;;;;9.57;2.70;;;;;;;4.66;100.00;96156.66;4940306;29;20091;-87
2021/12/12 01:54:10;;;;;;;2.67;2.42;;;;;;;4.50;100.00;96141.78;4936036;29;20027;-87
2021/12/12 01:56:50;;;;;;;3.28;2.17;;;;;;;4.54;100.00;96162.69;4937185;29;20031;-86
2021/12/12 01:59:17;;;;;;;0.68;0.68;;;;;;;4.52;100.00;96177.84;4940777;29;20027;-87
2021/12/12 02:01:56;;;;;;;6.18;4.40;;;;;;;4.37;100.00;96160.19;4937776;29;20409;-87
2021/12/12 02:04:26;;;;;;;2.72;1.60;;;;;;;4.34;100.00;96161.25;4938582;29;20030;-86
2021/12/12 02:06:54;;;;;;;1.92;1.83;;;;;;;4.34;100.00;96189.50;4938985;29;20023;-87
2021/12/12 02:09:21;;;;;;;7.82;2.75;;;;;;;4.22;100.00;96175.19;4935271;29;20015;-87
2021/12/12 02:11:48;;;;;;;1.40;1.38;;;;;;;4.06;100.00;96169.09;4939127;29;20038;-87
2021/12/12 02:14:16;;;;;;;1.77;1.67;;;;;;;4.10;100.00;96183.88;4955422;29;20028;-87
2021/12/12 02:16:50;;;;;;;2.70;2.08;;;;;;;4.03;100.00;96195.72;4938338;29;20030;-88
2021/12/12 02:19:17;;;;;;;7.20;2.10;;;;;;;3.95;100.00;96178.59;4950708;29;20299;-87
2021/12/12 02:35:44;;;;;;;7.32;3.30;;;;;;;3.65;100.00;96173.31;4933145;29;20050;-87
2021/12/12 02:38:12;;;;;;;3.20;2.83;;;;;;;3.67;100.00;96188.13;4937011;29;20086;-86
2021/12/12 02:40:46;;;;;;;7.53;3.05;;;;;;;3.68;100.00;96189.84;4953568;29;20086;-86
2021/12/12 02:43:15;;;;;;;5.68;2.83;;;;;;;3.64;100.00;96188.31;4939511;29;20032;-87
2021/12/12 02:45:42;;;;;;;2.97;2.78;;;;;;;3.47;100.00;96159.34;4942569;29;20115;-87
2021/12/12 02:48:15;;;;;;;2.97;2.67;;;;;;;3.62;100.00;96197.25;4942297;29;20023;-87
2021/12/12 02:50:46;;;;;;;4.55;3.35;;;;;;;3.60;100.00;96196.50;4949186;28;20408;-87
2021/12/12 02:53:23;;;;;;;10.93;3.03;;;;;;;3.52;100.00;96198.72;4918118;29;20071;-89
2021/12/12 02:55:57;;;;;;;4.18;2.83;;;;;;;3.45;100.00;96202.63;4941857;29;20035;-89
2021/12/12 02:58:24;;;;;;;3.33;2.97;;;;;;;3.40;100.00;96205.53;4954409;29;20050;-88
2021/12/12 03:00:58;;;;;;;11.25;4.47;;;;;;;3.37;100.00;96204.84;4951948;29;20126;-88
2021/12/12 03:03:29;;;;;;;3.85;3.03;;;;;;;3.30;100.00;96196.41;4974005;28;20042;-88
2021/12/12 03:05:56;;;;;;;4.25;2.90;;;;;;;3.28;100.00;96196.50;4941127;29;20042;-87
2021/12/12 03:08:22;;;;;;;2.85;2.65;;;;;;;3.19;100.00;96178.50;4938417;29;20027;-87
2021/12/12 03:10:50;;;;;;;4.85;4.03;;;;;;;3.32;100.00;96205.13;4952546;28;20032;-88
2021/12/12 03:13:17;;;;;;;5.82;4.47;;;;;;;3.27;100.00;96178.06;4922054;29;20518;-87
2021/12/12 03:15:44;;;;;;;4.35;3.08;;;;;;;3.32;100.00;96194.56;4924118;29;20156;-87
2021/12/12 03:18:16;;;;;;;6.95;5.07;;;;;;;3.42;100.00;96216.84;4921326;29;20453;-87
2021/12/12 03:20:48;;;;;;;6.20;3.42;;;;;;;3.39;100.00;96218.81;4946481;29;20086;-87
2021/12/12 03:23:19;;;;;;;4.47;2.97;;;;;;;3.52;100.00;96220.72;4950635;28;20430;-88
2021/12/12 03:25:48;;;;;;;6.95;3.92;;;;;;;3.52;100.00;96226.00;4948746;29;20403;-87
2021/12/12 03:28:16;;;;;;;4.85;4.30;;;;;;;3.42;100.00;96203.66;4948498;29;20491;-87
2021/12/12 03:30:45;;;;;;;3.53;2.20;;;;;;;3.42;100.00;96218.66;4953391;29;20384;-87
2021/12/12 03:33:11;;;;;;;2.55;2.10;;;;;;;3.45;100.00;96227.25;4944817;29;20110;-85
2021/12/12 03:35:38;;;;;;;4.75;3.08;;;;;;;3.50;100.00;96212.03;4948608;29;20059;-88
2021/12/12 03:38:05;;;;;;;3.08;2.88;;;;;;;3.48;100.00;96223.59;4955552;29;20031;-88
2021/12/12 03:40:37;;;;;;;2.60;2.40;;;;;;;3.51;100.00;96223.41;4931154;29;20032;-87
2021/12/12 03:43:05;;;;;;;2.60;1.85;;;;;;;3.60;100.00;96238.81;4945638;29;20087;-87
2021/12/12 03:45:32;;;;;;;1.58;1.48;;;;;;;3.47;100.00;96235.97;4938947;29;20027;-87
2021/12/12 03:48:00;;;;;;;6.53;3.53;;;;;;;3.42;100.00;96230.06;4928532;29;20020;-87
2021/12/12 03:50:30;;;;;;;2.22;2.10;;;;;;;3.49;100.00;96251.75;4927511;29;20039;-87
2021/12/12 03:52:56;;;;;;;3.08;2.85;;;;;;;3.33;100.00;96261.44;4921440;29;20036;-88
2021/12/12 03:55:28;;;;;;;6.38;2.35;;;;;;;3.36;100.00;96246.25;4925809;29;20389;-88
2021/12/12 03:57:53;;;;;;;;;;;;;;;3.32;100.00;96270.31;4904032;29;20036;-87
2021/12/12 04:00:25;;;;;;;3.05;2.72;;;;;;;3.18;100.00;96263.97;4967559;28;20439;-87
2021/12/12 04:02:51;;;;;;;4.78;3.45;;;;;;;3.23;100.00;96275.13;4931792;29;20051;-87
2021/12/12 04:05:17;;;;;;;3.20;2.40;;;;;;;3.21;100.00;96281.44;4933038;29;20523;-88
2021/12/12 04:07:43;;;;;;;1.85;1.65;;;;;;;3.13;100.00;96276.59;4947945;29;20459;-87
2021/12/12 04:10:12;;;;;;;2.80;2.58;;;;;;;3.04;100.00;96265.66;4940581;29;20035;-87
2021/12/12 04:12:38;;;;;;;4.07;2.03;;;;;;;3.05;100.00;96251.50;4940514;29;20159;-88
2021/12/12 04:15:05;;;;;;;3.17;1.98;;;;;;;2.94;100.00;96248.56;4943476;29;20111;-87
2021/12/12 04:17:31;;;;;;;4.45;2.97;;;;;;;2.81;100.00;96226.38;4941879;29;20034;-87
2021/12/12 04:20:01;;;;;;;2.10;1.95;;;;;;;3.12;100.00;96284.56;4935547;29;20058;-87
2021/12/12 04:22:33;;;;;;;50.50;2.88;;;;;;;2.87;100.00;96241.91;4941783;29;20487;-88
2021/12/12 04:24:59;;;;;;;3.83;3.08;;;;;;;3.09;100.00;96280.31;4939549;29;20047;-88
2021/12/12 04:27:25;;;;;;;2.47;2.28;;;;;;;2.96;100.00;96283.66;4954506;29;20043;-88
2021/12/12 04:29:52;;;;;;;3.80;3.20;;;;;;;2.98;100.00;96295.03;4938795;29;20035;-88
2021/12/12 04:32:21;;;;;;;3.88;2.22;;;;;;;2.98;100.00;96293.25;4958278;29;20034;-88
2021/12/12 04:34:54;;;;;;;6.03;3.35;;;;;;;3.00;100.00;96325.69;4934369;29;20043;-88
2021/12/12 04:37:21;;;;;;;15.05;7.07;;;;;;;2.84;100.00;96329.19;4933171;29;20509;-88
2021/12/12 04:39:49;;;;;;;5.90;3.67;;;;;;;2.80;100.00;96325.03;4937128;29;20046;-88
2021/12/12 04:42:36;;;;;;;4.20;2.75;;;;;;;2.80;100.00;96325.84;4951138;28;20062;-89
2021/12/12 04:45:20;;;;;;;1.65;1.55;;;;;;;2.83;100.00;96330.97;4937542;29;21202;-88
2021/12/12 04:51:18;;;;;;;4.70;3.30;;;;;;;2.63;100.00;96329.34;4937055;29;20175;-88
2021/12/12 04:53:59;;;;;;;3.47;2.20;;;;;;;2.63;100.00;96344.34;4951897;29;20090;-86
2021/12/12 04:56:46;;;;;;;16.30;5.80;;;;;;;2.60;100.00;96350.63;4942031;29;20070;-88
2021/12/12 04:59:21;;;;;;;4.13;3.15;;;;;;;2.47;100.00;96346.88;4955610;28;20097;-88
2021/12/12 05:02:03;;;;;;;2.53;2.22;;;;;;;2.34;100.00;96337.84;4929667;29;20046;-88
2021/12/12 05:04:57;;;;;;;4.22;3.67;;;;;;;2.55;100.00;96371.09;4961142;28;20042;-88
2021/12/12 05:07:31;;;;;;;2.47;2.08;;;;;;;2.37;100.00;96353.53;4940478;28;20035;-88
2021/12/12 05:10:05;;;;;;;5.28;3.90;;;;;;;2.36;100.00;96367.66;4970214;28;20055;-88
2021/12/12 05:12:40;;;;;;;2.28;1.65;;;;;;;2.45;100.00;96377.78;4942377;28;20027;-87
2021/12/12 05:15:18;;;;;;;26.98;10.85;;;;;;;2.43;100.00;96387.53;4946536;28;20031;-86
2021/12/12 05:18:48;;;;;;;4.70;3.42;;;;;;;2.16;100.00;96363.34;4923599;29;20036;-88
2021/12/12 05:21:15;;;;;;;7.25;4.95;;;;;;;2.44;100.00;96410.34;4897072;29;20051;-86
2021/12/12 05:23:45;;;;;;;4.88;4.38;;;;;;;2.54;100.00;96427.47;4924342;29;20028;-87
2021/12/12 05:26:14;;;;;;;20.50;4.05;;;;;;;2.40;100.00;96408.78;4910195;29;20036;-88
2021/12/12 05:28:47;;;;;;;6.85;2.28;;;;;;;2.58;100.00;96438.72;4903975;29;20118;-88
2021/12/12 05:31:13;;;;;;;5.40;4.85;;;;;;;2.57;100.00;96435.22;4904172;29;20035;-87
2021/12/12 05:33:41;;;;;;;10.70;6.60;;;;;;;2.57;100.00;96443.16;4904613;29;20055;-88
2021/12/12 05:36:08;;;;;;;13.05;7.15;;;;;;;2.55;100.00;96437.06;4895497;29;20029;-86
2021/12/12 05:38:34;;;;;;;8.35;4.03;;;;;;;2.61;100.00;96444.72;4928994;29;20036;-87
2021/12/12 05:41:00;;;;;;;5.47;4.22;;;;;;;2.64;100.00;96457.75;4903827;29;20039;-88
2021/12/12 05:43:26;;;;;;;8.23;5.75;;;;;;;2.43;100.00;96421.00;4902885;29;20476;-88
2021/12/12 05:45:52;;;;;;;5.22;4.65;;;;;;;2.66;100.00;96450.63;4901492;29;20035;-88
2021/12/12 05:48:20;;;;;;;7.22;4.72;;;;;;;2.67;100.00;96457.63;4900085;29;20122;-88
2021/12/12 05:50:46;;;;;;;7.22;5.22;;;;;;;2.73;100.00;96467.00;4899965;29;20035;-88
2021/12/12 05:53:13;;;;;;;10.65;8.13;;;;;;;2.76;100.00;96461.59;4919003;29;20032;-87
2021/12/12 05:55:40;;;;;;;8.25;5.70;;;;;;;2.78;100.00;96464.13;4902426;29;20479;-86
2021/12/12 05:58:11;;;;;;;6.72;4.28;;;;;;;2.62;100.00;96437.63;4899671;29;20040;-87
2021/12/12 06:00:43;;;;;;;24.25;11.95;;;;;;;2.71;100.00;96456.50;4914861;29;20048;-86
2021/12/12 06:03:10;;;;;;;37.17;17.92;;;;;;;2.79;100.00;96476.41;4894697;29;20038;-86
2021/12/12 06:05:37;;;;;;;23.02;13.27;;;;;;;2.83;100.00;96486.72;4899950;29;20067;-88
2021/12/12 06:08:04;;;;;;;20.45;13.90;;;;;;;2.80;100.00;96480.78;4912748;29;20027;-88
2021/12/12 06:10:31;;;;;;;19.02;13.35;;;;;;;2.83;100.00;96492.00;4903196;29;20038;-88
2021/12/12 06:12:56;;;;;;;19.73;9.77;;;;;;;2.67;100.00;96468.19;4903412;29;20036;-88
2021/12/12 06:15:23;;;;;;;12.18;10.13;;;;;;;2.95;100.00;96517.00;4900402;29;20035;-87
2021/12/12 06:17:50;;;;;;;14.45;9.82;;;;;;;2.87;100.00;96512.06;4919236;29;20039;-89
2021/12/12 06:20:16;;;;;;;14.50;11.88;;;;;;;2.95;100.00;96519.63;4892958;29;20071;-87
2021/12/12 06:22:42;;;;;;;34.67;18.48;;;;;;;3.04;100.00;96519.19;4915437;29;20103;-88
2021/12/12 06:25:09;;;;;;;12.32;9.30;;;;;;;3.17;100.00;96542.25;4915200;29;20040;-87
2021/12/12 06:27:35;;;;;;;23.90;10.48;;;;;;;3.12;100.00;96517.88;4907952;29;20529;-88
2021/12/12 06:30:03;;;;;;;43.85;26.85;;;;;;;3.17;100.00;96526.41;4903176;29;20071;-87
2021/12/12 06:32:29;;;;;;;28.38;13.02;;;;;;;3.24;100.00;96537.53;4899769;29;20058;-87
2021/12/12 06:34:57;;;;;;;20.02;7.78;;;;;;;3.11;100.00;96547.84;4900250;29;20033;-87
2021/12/12 06:37:23;;;;;;;9.80;7.10;;;;;;;3.10;100.00;96546.16;4905037;29;20496;-88
2021/12/12 06:39:50;;;;;;;12.88;7.18;;;;;;;3.07;100.00;96551.59;4890552;29;20045;-87
2021/12/12 06:42:15;;;;;;;9.10;6.53;;;;;;;3.17;100.00;96571.31;4903280;29;20028;-88
2021/12/12 06:44:42;;;;;;;12.45;8.30;;;;;;;3.19;100.00;96571.28;4900942;29;20467;-88
2021/12/12 06:47:09;;;;;;;23.08;12.10;;;;;;;3.35;100.00;96580.16;4918877;29;20484;-89
2021/12/12 06:49:36;;;;;;;8.73;7.82;;;;;;;3.56;100.00;96571.16;4903637;29;20464;-88
2021/12/12 06:52:05;;;;;;;21.55;8.57;;;;;;;3.71;100.00;96586.25;4902937;29;20031;-88
2021/12/12 06:54:31;;;;;;;7.55;5.20;;;;;;;3.75;100.00;96582.50;4918374;29;20053;-87
2021/12/12 06:57:01;;;;;;;27.40;9.20;;;;;;;4.05;100.00;96589.81;4894644;29;20039;-87
2021/12/12 06:59:28;;;;;;;13.93;7.47;;;;;;;4.79;100.00;96585.84;4892668;29;20461;-85
2021/12/12 07:01:54;;;;;;;7.65;6.28;;;;;;;5.56;100.00;96580.59;4881034;29;20033;-87
2021/12/12 07:04:20;;;;;;;16.38;11.10;;;;;;;5.65;100.00;96575.63;4902830;29;20032;-88
2021/12/12 07:06:48;;;;;;;16.63;10.85;;;;;;;7.07;100.00;96587.28;4916887;29;20476;-87
2021/12/12 07:09:15;;;;;;;27.40;9.07;;;;;;;8.68;100.00;96609.28;4899393;29;20039;-87
2021/12/12 07:11:41;;;;;;;15.98;11.57;;;;;;;10.14;100.00;96619.09;4899810;29;20043;-87
2021/12/12 07:14:11;;;;;;;16.15;6.82;;;;;;;11.42;88.49;96629.53;4906079;29;20058;-88
2021/12/12 07:16:38;;;;;;;28.83;11.80;;;;;;;12.13;75.10;96641.59;4903367;29;20038;-87
2021/12/12 07:19:04;;;;;;;21.60;9.27;;;;;;;13.10;70.79;96649.44;4919800;29;20051;-88
2021/12/12 07:21:30;;;;;;;16.75;10.30;;;;;;;14.26;62.46;96640.81;4946882;28;20031;-88
2021/12/12 07:23:59;;;;;;;18.25;11.05;;;;;;;14.02;62.57;96624.22;4931584;29;20442;-87
2021/12/12 07:26:25;;;;;;;9.68;7.18;;;;;;;14.40;60.70;96661.94;4934572;29;20036;-86
2021/12/12 07:28:53;;;;;;;28.52;13.45;;;;;;;14.87;58.79;96644.09;4951545;29;20087;-87
2021/12/12 07:31:22;;;;;;;33.65;16.42;;;;;;;15.71;56.77;96664.75;4945156;28;20042;-87
2021/12/12 07:33:51;;;;;;;33.50;14.20;;;;;;;16.85;53.39;96663.34;4927749;29;20043;-86
2021/12/12 07:36:18;;;;;;;28.23;17.20;;;;;;;17.01;52.25;96650.00;4932461;29;20428;-86
2021/12/12 07:38:47;;;;;;;49.20;21.02;;;;;;;17.46;50.83;96674.13;4937213;29;20035;-87
2021/12/12 07:41:13;;;;;;;44.88;22.83;;;;;;;17.67;50.41;96663.81;4936694;29;20024;-85
2021/12/12 07:43:39;;;;;;;34.67;20.02;;;;;;;17.70;49.72;96677.88;4928469;29;20455;-88
2021/12/12 07:46:05;;;;;;;42.05;18.73;;;;;;;17.17;49.95;96696.91;4929485;29;20027;-87
2021/12/12 07:48:35;;;;;;;37.22;21.95;;;;;;;17.01;51.14;96688.63;4927768;29;20098;-88
2021/12/12 07:51:03;;;;;;;12.30;7.38;;;;;;;16.65;52.97;96712.13;4927802;29;20091;-86
2021/12/12 07:53:29;;;;;;;9.77;5.43;;;;;;;16.22;50.11;96706.53;4936629;29;20119;-86
2021/12/12 07:55:55;;;;;;;2.00;1.52;;;;;;;14.98;52.53;96718.50;4922512;29;20459;-87
2021/12/12 07:58:22;;;;;;;5.10;2.08;;;;;;;14.04;55.31;96732.47;4939200;29;20058;-87
2021/12/12 08:00:49;;;;;;;1.60;1.48;;;;;;;13.46;56.53;96742.94;4934941;29;20038;-88
2021/12/12 08:03:20;;;;;;;1.25;0.93;;;;;;;13.69;58.23;96764.31;4938266;29;20027;-88
2021/12/12 08:05:45;;;;;;;1.75;1.48;;;;;;;13.72;57.81;96748.72;4933323;29;20114;-86
2021/12/12 08:08:12;;;;;;;6.20;1.83;;;;;;;13.69;58.68;96749.00;4938576;29;20043;-86
2021/12/12 08:10:40;;;;;;;1.73;1.48;;;;;;;13.35;59.37;96756.44;4923223;29;20483;-86
2021/12/12 08:13:06;;;;;;;1.70;1.58;;;;;;;13.03;58.77;96739.50;4954433;28;20415;-88
2021/12/12 08:15:32;;;;;;;1.00;0.95;;;;;;;12.32;60.71;96770.50;4932552;29;20030;-88
2021/12/12 08:18:00;;;;;;;3.92;2.03;;;;;;;11.70;64.57;96786.25;4935711;29;20059;-85
2021/12/12 08:20:29;;;;;;;5.03;2.80;;;;;;;10.94;66.00;96748.47;4909875;29;20035;-86
2021/12/12 08:22:55;;;;;;;7.53;2.72;;;;;;;10.66;68.13;96751.50;4900692;29;20032;-86
2021/12/12 08:25:22;;;;;;;1.30;1.08;;;;;;;11.67;66.40;96780.22;4917429;29;20034;-88
2021/12/12 08:27:48;;;;;;;0.90;0.90;;;;;;;13.07;59.96;96772.31;4915934;29;20103;-87
2021/12/12 08:30:16;;;;;;;8.10;2.33;;;;;;;13.73;56.82;96758.50;4902892;29;20060;-89
2021/12/12 08:32:46;;;;;;;3.75;1.08;;;;;;;14.87;52.98;96770.66;4917501;29;20039;-87
2021/12/12 08:35:13;;;;;;;0.77;0.75;;;;;;;14.74;52.90;96791.59;4900696;29;20032;-87
2021/12/12 08:37:40;;;;;;;1.27;1.17;;;;;;;13.53;54.58;96789.78;4893604;29;20039;-87
2021/12/12 08:40:07;;;;;;;1.25;1.13;;;;;;;12.81;57.05;96798.66;4892139;29;20499;-88
2021/12/12 08:46:29;;;;;;;;;;;;;;;;;;;;;
2021/12/12 08:53:23;;;;;;;;;;;;;;;;;;;;;
2021/12/12 08:56:41;;;;;;;0.95;0.93;;;;;;;13.10;55.58;96740.75;4944063;29;20038;-89
2021/12/12 08:59:30;;;;;;;;;;;;;;;;;;;;;
2021/12/12 09:02:23;;;;;;;;;;;;;;;;;;;;;
2021/12/12 09:05:27;;;;;;;1.02;0.93;;;;;;;10.10;65.95;96758.31;4926206;29;20094;-88
2021/12/12 09:08:19;;;;;;;;;;;;;;;;;;;;;
2021/12/12 09:10:52;;;;;;;1.00;0.98;;;;;;;9.89;68.00;96790.13;4921322;29;20434;-89
2021/12/12 09:13:38;;;;;;;;;;;;;;;;;;;;;
2021/12/12 09:16:35;;;;;;;;;;;;;;;;;;;;;
2021/12/12 09:19:28;;;;;;;;;;;;;;;;;;;;;
2021/12/12 09:22:04;;;;;;;1.08;1.05;;;;;;;11.29;63.33;96762.66;4904803;29;20048;-84
2021/12/12 09:24:42;;;;;;;;;;;;;;;;;;;;;
2021/12/12 09:27:45;;;;;;;8.30;4.32;;;;;;;11.12;66.10;96808.59;4904101;29;20107;-90
2021/12/12 09:30:58;;;;;;;;;;;;;;;;;;;;;
2021/12/12 09:33:52;;;;;;;3.42;0.80;;;;;;;10.89;66.22;96809.47;4936836;29;20122;-88
2021/12/12 09:37:31;;;;;;;4.75;1.58;;;;;;;10.53;65.98;96823.75;4923806;29;20032;-89
2021/12/12 09:39:50;;;;;;;4.28;2.38;;;;;;;10.66;65.69;96827.25;4921945;29;20043;-87
2021/12/12 09:42:52;;;;;;;1.65;0.70;;;;;;;12.05;60.17;96802.22;4902096;29;20118;-88
2021/12/12 09:45:56;;;;;;;2.70;1.23;;;;;;;14.03;53.92;96844.56;4901367;29;20039;-88
2021/12/12 09:51:14;;;;;;;1.00;0.73;;;;;;;14.33;52.75;96840.22;4925573;29;20039;-89
2021/12/12 09:51:45;;;;;;;6.85;1.33;;;;;;;14.89;50.27;96822.50;4866003;29;20094;-88
2021/12/12 09:54:34;;;;;;;1.23;1.00;;;;;;;16.48;50.58;96839.81;4920141;29;20036;-87
2021/12/12 09:57:14;;;;;;;0.40;0.40;;;;;;;18.30;47.44;96808.63;4886828;29;20046;-86
2021/12/12 09:59:50;;;;;;;0.85;0.40;;;;;;;20.11;39.39;96784.28;4892821;29;20028;-88
2021/12/12 10:02:17;;;;;;;0.43;0.43;;;;;;;20.32;41.45;96810.94;4911396;29;20126;-89
2021/12/12 10:04:56;;;;;;;0.63;0.50;;;;;;;21.87;38.56;96793.63;4918325;29;20507;-89
2021/12/12 10:07:38;;;;;;;2.63;1.77;;;;;;;22.27;34.59;96790.50;4902420;29;20123;-88
2021/12/12 10:10:10;;;;;;;56.90;28.65;;;;;;;21.91;35.71;96773.16;4921125;29;20038;-87
2021/12/12 10:12:45;;;;;;;7.82;5.28;;;;;;;22.24;35.87;96771.00;4905903;29;20039;-88
2021/12/12 10:15:19;;;;;;;18.75;10.38;;;;;;;21.38;36.69;96799.41;4895455;29;20538;-89
2021/12/12 10:18:12;;;;;;;10.55;7.05;;;;;;;21.87;37.57;96804.50;4901504;29;20060;-89
2021/12/12 10:20:49;;;;;;;13.43;9.90;;;;;;;22.34;37.42;96813.28;4888236;29;20063;-88
2021/12/12 10:23:15;;;;;;;9.82;7.35;;;;;;;21.88;36.73;96819.81;4901452;29;20028;-88
2021/12/12 10:26:29;;;;;;;17.52;13.55;;;;;;;20.26;38.90;96827.91;4918690;29;20028;-85
2021/12/12 10:29:05;;;;;;;56.88;21.67;;;;;;;17.88;44.24;96842.84;4845479;29;20066;-88
2021/12/12 10:31:38;;;;;;;28.08;14.43;;;;;;;16.78;46.60;96831.44;4874764;29;20127;-90
2021/12/12 10:34:09;;;;;;;18.92;11.65;;;;;;;16.44;49.25;96854.59;4905685;29;20027;-89
2021/12/12 10:37:29;;;;;;;15.90;10.60;;;;;;;15.22;53.22;96891.34;4905956;29;20044;-89
2021/12/12 10:40:06;;;;;;;11.60;9.00;;;;;;;14.09;52.63;96881.66;4885220;29;20044;-89
2021/12/12 10:42:35;;;;;;;15.48;10.32;;;;;;;13.62;54.71;96865.22;4913650;29;20068;-89
2021/12/12 10:45:35;;;;;;;16.27;11.25;;;;;;;13.56;57.43;96904.25;4904751;29;20059;-88
2021/12/12 10:48:08;;;;;;;21.77;12.35;;;;;;;13.41;58.62;96879.47;4905761;29;20039;-89
2021/12/12 10:50:44;;;;;;;18.63;11.48;;;;;;;13.69;56.75;96882.56;4908482;29;20118;-89
2021/12/12 10:53:32;;;;;;;10.43;5.95;;;;;;;13.43;54.51;96877.53;4923464;29;20032;-89
2021/12/12 10:56:39;;;;;;;10.05;6.38;;;;;;;13.46;54.53;96905.97;4897925;29;20036;-89
2021/12/12 10:59:18;;;;;;;22.55;12.27;;;;;;;13.30;56.97;96892.97;4916501;29;20063;-90
2021/12/12 11:01:45;;;;;;;7.57;5.93;;;;;;;12.91;55.49;96886.34;4913867;29;20053;-90
2021/12/12 11:04:10;;;;;;;10.73;6.63;;;;;;;12.97;57.55;96918.06;4919216;29;20030;-90
2021/12/12 11:06:41;;;;;;;9.05;6.43;;;;;;;12.91;56.42;96912.34;4921832;29;20055;-90
2021/12/12 11:09:29;;;;;;;8.63;5.40;;;;;;;12.57;57.66;96903.47;4912869;29;20031;-91
2021/12/12 11:12:17;;;;;;;15.68;8.57;;;;;;;12.39;60.35;96921.91;4898002;29;20047;-90
2021/12/12 11:15:21;;;;;;;11.27;7.28;;;;;;;12.64;59.23;96914.56;4913139;29;20031;-89
2021/12/12 11:18:14;;;;;;;10.63;6.28;;;;;;;12.90;58.97;96905.25;4914350;29;20058;-81
2021/12/12 11:20:50;;;;;;;8.63;4.80;;;;;;;13.26;57.26;96890.69;4884543;29;20063;-80
2021/12/12 11:23:26;;;;;;;7.95;5.53;;;;;;;13.51;57.13;96893.84;4934175;29;20473;-81
2021/12/12 11:26:00;;;;;;;13.32;7.80;;;;;;;13.28;56.94;96900.31;4927980;29;20039;-82
2021/12/12 11:28:31;;;;;;;11.43;6.45;;;;;;;12.96;58.68;96921.72;4909483;29;20040;-82
2021/12/12 11:31:16;;;;;;;11.05;6.13;;;;;;;12.41;58.98;96906.53;4930157;29;20070;-90
2021/12/12 11:33:45;;;;;;;28.40;17.95;;;;;;;12.34;61.94;96939.31;4919258;29;20478;-79
2021/12/12 11:36:15;;;;;;;7.53;5.22;;;;;;;12.04;60.08;96931.84;4920799;29;20062;-81
2021/12/12 11:38:46;;;;;;;9.27;5.25;;;;;;;11.81;61.42;96925.56;4920195;29;20062;-80
2021/12/12 11:41:16;;;;;;;21.20;13.43;;;;;;;11.50;63.69;96941.41;4931822;29;20027;-80
2021/12/12 11:43:42;;;;;;;11.95;6.95;;;;;;;11.27;63.36;96935.94;4920028;29;20495;-80
2021/12/12 11:46:18;;;;;;;11.02;7.40;;;;;;;10.84;64.21;96950.75;4931884;29;20074;-80
2021/12/12 11:49:00;;;;;;;9.27;6.38;;;;;;;10.39;65.38;96946.03;4935774;29;20058;-79
2021/12/12 11:51:33;;;;;;;12.93;8.07;;;;;;;10.20;66.39;96946.47;4923608;29;20035;-81
2021/12/12 11:54:07;;;;;;;12.52;7.85;;;;;;;10.08;67.41;96945.50;4924798;29;20097;-80
2021/12/12 11:56:49;;;;;;;12.57;7.97;;;;;;;10.04;70.79;96957.34;4948340;29;20019;-80
2021/12/12 11:59:19;;;;;;;14.57;8.93;;;;;;;9.95;68.10;96947.28;4927229;29;20031;-80
2021/12/12 12:01:51;;;;;;;10.02;7.10;;;;;;;9.89;68.19;96949.53;4905082;29;20039;-81
2021/12/12 12:04:22;;;;;;;11.00;6.70;;;;;;;9.70;68.90;96958.81;4920485;29;20036;-79
2021/12/12 12:07:25;;;;;;;19.75;9.70;;;;;;;9.68;69.37;96949.19;4932202;29;20191;-80
2021/12/12 12:09:57;;;;;;;;;;;;;;;9.57;69.73;96960.56;4930592;29;20031;-80
2021/12/12 12:12:41;;;;;;;19.10;10.52;;;;;;;9.50;71.03;96961.97;4933309;29;20387;-80
2021/12/12 12:15:22;;;;;;;23.42;11.75;;;;;;;9.43;71.08;96974.00;4922516;29;20410;-80
2021/12/12 12:18:15;;;;;;;56.00;22.05;;;;;;;9.47;72.81;96966.66;4927774;29;20046;-80
2021/12/12 12:21:15;;;;;;;23.83;12.70;;;;;;;9.42;73.79;96958.06;4908504;29;20032;-81
2021/12/12 12:27:02;;;;;;;23.52;12.73;;;;;;;9.42;73.38;96979.44;4925870;29;20052;-81
2021/12/12 12:29:27;;;;;;;20.27;11.63;;;;;;;9.30;77.21;96993.59;4917354;29;20067;-80
2021/12/12 12:32:30;;;;;;;16.25;9.48;;;;;;;9.13;82.53;96995.56;4912967;29;20126;-81
2021/12/12 12:35:34;;;;;;;13.77;5.97;;;;;;;9.11;84.08;97000.13;4918094;29;20051;-80
2021/12/12 12:38:31;;;;;;;5.70;3.85;;;;;;;8.89;85.83;96996.28;4905453;29;20040;-80
2021/12/12 12:41:21;;;;;;;4.72;3.58;;;;;;;8.62;89.23;96999.75;4912963;29;20036;-79
2021/12/12 12:44:24;;;;;;;10.30;6.13;;;;;;;8.60;94.18;97008.78;4912326;29;20099;-79